RJFR/KKJ METAR and TAF weather

Enter ICAO airport designator
Station Type Date Time Source
RJFR METAR 2020/05/29 18:00 UTC NOAA

RJFR 291800Z 34003KT 9999 FEW030 SCT/// 18/15 Q1016


Station Type Date Time Source
RJFR Decoded METAR 2020/05/29 18:00 UTC NOAA

Kitakyushu Airport, Japan (RJFR) 33-50N 130-57E 6M
May 29, 2020 - 02:00 PM EDT / 2020.05.29 1800 UTC
Wind: from the NNW (340 degrees) at 3 MPH (3 KT):0
Visibility: greater than 7 mile(s):0
Sky conditions: partly cloudy
Temperature: 64 F (18 C)
Dew Point: 59 F (15 C)
Relative Humidity: 82%
Pressure (altimeter): 30.00 in. Hg (1016 hPa)
ob: RJFR 291800Z 34003KT 9999 FEW030 SCT/// 18/15 Q1016
cycle: 18

Station Type Date Time Source
RJFR TAF 2020/05/29 18:00 UTC NOAA

TAF RJFR 291706Z 2918/3100 36005KT 9999 FEW030
BECMG 2922/3000 09006KT

Example: see airport list